Flight Number: EUR3058 Duration: 11:00
Departure: Paris Charles-de-Gaulle (LFPG) at 08:00 Distance: 4964 Nm
Arrival: Mexico City Int'l Airport (MMMX) at 19:00 Equipment: A340

Weather Information
Paris-Aeroport Charles De Gaulle, France (LFPG) 49-01N 002-32E 109M Jan 22, 2018 - 03:00 AM EST / 2018.01.22 0800 UTC
Wind: Variable at 3 MPH (3 KT):0
Visibility: 1 mile(s):0
Sky conditions: mostly cloudy Weather: light rain Temperature: 50 F (10 C) Dew Point: 50 F (10 C) Relative Humidity: 100% Pressure (altimeter): 29.80 in. Hg (1009 hPa)
ob: LFPG 220800Z VRB03KT 3000 -RA SCT004 BKN012 10/10 Q1009 BECMG 4000 -RA cycle: 8
Sunrise: 07:35 Sunset: 16:27 (UTC)

Mexico City / Licenci, Mexico (MMMX) 19-26N 099-06W Jan 22, 2018 - 02:53 AM EST / 2018.01.22 0753 UTC
Wind: from the E (090 degrees) at 3 MPH (3 KT):0
Visibility: 10 mile(s):0
Sky conditions: clear Temperature: 55 F (13 C) Dew Point: 37 F (3 C) Relative Humidity: 50% Pressure (altimeter): 30.29 in. Hg (1025 hPa)
ob: MMMX 220753Z 09003KT 10SM SKC 13/03 A3029 NOSIG RMK HZY cycle: 8
Sunrise: 13:15 Sunset: 00:20 (UTC)

TAF:2018/01/22 06:56 TAF MMMX 220451Z 2206/2312 20005KT P6SM SCT250 TX24/2220Z TN06/2212Z FM221800 08010KT P6SM BKN250 FM230300 03005KT P6SM BKN250

This route has never been flown.

Route map